createdAt,value
2023-02-17T00:01:28.638Z,7.60
2023-02-17T00:03:55.605Z,7.15
2023-02-17T00:06:24.526Z,6.75
2023-02-17T00:08:51.282Z,7.00
2023-02-17T00:11:18.335Z,6.50
2023-02-17T00:13:45.018Z,7.22
2023-02-17T00:16:18.326Z,7.38
2023-02-17T00:18:45.632Z,7.05
2023-02-17T00:21:20.793Z,7.10
2023-02-17T00:23:49.578Z,6.47
2023-02-17T00:26:17.232Z,7.25
2023-02-17T00:28:44.067Z,7.00
2023-02-17T00:31:15.885Z,7.07
2023-02-17T00:33:42.767Z,6.85
2023-02-17T00:36:13.371Z,6.97
2023-02-17T00:38:39.978Z,7.40
2023-02-17T00:41:06.586Z,6.95
2023-02-17T00:43:33.133Z,6.65
2023-02-17T00:45:59.768Z,7.32
2023-02-17T00:48:26.386Z,7.35
2023-02-17T00:50:52.992Z,6.95
2023-02-17T00:53:19.511Z,7.05
2023-02-17T00:55:46.053Z,6.65
2023-02-17T00:58:12.641Z,6.32
2023-02-17T01:00:39.241Z,6.90
2023-02-17T01:03:06.123Z,7.07
2023-02-17T01:05:32.670Z,6.68
2023-02-17T01:07:59.214Z,6.18
2023-02-17T01:10:25.831Z,7.10
2023-02-17T01:12:52.379Z,6.82
2023-02-17T01:55:00.140Z,5.00
2023-02-17T01:57:28.065Z,5.13
2023-02-17T01:59:54.678Z,5.13
2023-02-17T02:02:22.042Z,5.53
2023-02-17T02:04:52.111Z,4.93
2023-02-17T02:07:27.503Z,4.93
2023-02-17T02:09:56.301Z,4.63
2023-02-17T02:12:27.513Z,5.70
2023-02-17T02:14:57.340Z,5.53
2023-02-17T02:17:33.038Z,5.80
2023-02-17T02:20:30.362Z,5.50
2023-02-17T02:23:29.107Z,5.68
2023-02-17T02:26:11.344Z,5.47
2023-02-17T02:29:09.890Z,6.10
2023-02-17T02:32:04.353Z,5.53
2023-02-17T02:34:46.678Z,5.93
2023-02-17T02:37:28.861Z,6.30
2023-02-17T02:42:23.863Z,4.85
2023-02-17T02:44:50.621Z,5.25
2023-02-17T02:47:32.418Z,5.35
2023-02-17T02:49:58.967Z,5.63
2023-02-17T02:53:00.773Z,5.88
2023-02-17T02:55:51.440Z,5.93
2023-02-17T02:58:43.738Z,5.47
2023-02-17T03:04:11.076Z,5.25
2023-02-17T03:06:46.284Z,6.00
2023-02-17T03:09:21.064Z,5.38
2023-02-17T03:11:48.206Z,5.90
2023-02-17T03:14:18.201Z,5.40
2023-02-17T03:16:45.165Z,5.57
2023-02-17T03:19:12.597Z,6.22
2023-02-17T03:21:57.740Z,6.35
2023-02-17T03:24:24.861Z,6.38
2023-02-17T03:26:51.444Z,6.35
2023-02-17T03:29:18.013Z,6.22
2023-02-17T03:31:44.612Z,6.05
2023-02-17T03:34:11.236Z,5.78
2023-02-17T03:36:37.785Z,5.68
2023-02-17T03:39:04.465Z,5.63
2023-02-17T03:41:31.071Z,5.80
2023-02-17T03:43:57.636Z,5.70
2023-02-17T03:46:24.271Z,5.53
2023-02-17T03:48:50.861Z,5.13
2023-02-17T03:51:22.006Z,5.85
2023-02-17T03:53:50.041Z,5.13
2023-02-17T03:56:16.943Z,6.15
2023-02-17T03:58:43.555Z,5.95
2023-02-17T04:01:11.368Z,5.40
2023-02-17T04:03:39.769Z,5.53
2023-02-17T04:06:07.539Z,5.47
2023-02-17T04:08:34.459Z,5.00
2023-02-17T04:11:02.563Z,5.50
2023-02-17T04:13:29.177Z,5.95
2023-02-17T04:15:56.022Z,5.07
2023-02-17T04:18:22.938Z,5.00
2023-02-17T04:20:51.028Z,5.18
2023-02-17T04:23:18.331Z,4.90
2023-02-17T04:25:45.391Z,5.72
2023-02-17T04:28:12.458Z,5.10
2023-02-17T04:30:39.245Z,5.93
2023-02-17T04:33:06.111Z,5.57
2023-02-17T04:35:32.833Z,5.13
2023-02-17T04:37:59.384Z,5.28
2023-02-17T04:40:26.000Z,5.40
2023-02-17T04:42:52.557Z,5.57
2023-02-17T04:45:19.116Z,5.40
2023-02-17T04:47:45.678Z,5.80
2023-02-17T04:50:12.506Z,5.03
2023-02-17T04:52:39.058Z,5.57
2023-02-17T04:55:06.835Z,5.47
2023-02-17T04:57:33.881Z,5.45
2023-02-17T05:00:00.522Z,5.50
2023-02-17T05:02:28.326Z,4.90
2023-02-17T05:04:54.960Z,5.32
2023-02-17T05:07:21.621Z,5.50
2023-02-17T05:09:48.608Z,4.43
2023-02-17T05:12:15.415Z,5.50
2023-02-17T05:14:42.020Z,5.32
2023-02-17T05:17:08.629Z,5.25
2023-02-17T05:19:35.304Z,5.07
2023-02-17T05:22:01.883Z,5.45
2023-02-17T05:24:28.442Z,5.88
2023-02-17T05:26:54.950Z,5.20
2023-02-17T05:29:21.552Z,5.10
2023-02-17T05:31:48.282Z,5.90
2023-02-17T05:34:14.918Z,5.63
2023-02-17T05:36:41.443Z,5.20
2023-02-17T05:39:09.113Z,6.15
2023-02-17T05:41:35.738Z,5.60
2023-02-17T05:44:02.284Z,5.68
2023-02-17T05:46:28.865Z,5.18
2023-02-17T05:48:55.493Z,5.57
2023-02-17T05:51:22.111Z,5.57
2023-02-17T05:53:49.192Z,5.65
2023-02-17T05:56:15.794Z,5.38
2023-02-17T05:58:42.444Z,5.50
2023-02-17T06:01:10.552Z,6.07
2023-02-17T06:03:37.288Z,5.32
2023-02-17T06:06:04.771Z,5.32
2023-02-17T06:08:31.534Z,5.28
2023-02-17T06:10:58.172Z,5.55
2023-02-17T06:13:24.815Z,5.20
2023-02-17T06:15:51.420Z,4.63
2023-02-17T06:18:18.048Z,5.63
2023-02-17T06:20:44.975Z,5.40
2023-02-17T06:23:11.722Z,5.00
2023-02-17T06:25:38.346Z,5.90
2023-02-17T06:28:05.242Z,5.35
2023-02-17T06:30:32.071Z,5.40
2023-02-17T06:32:59.304Z,5.75
2023-02-17T06:35:26.186Z,6.35
2023-02-17T06:37:53.217Z,6.45
2023-02-17T06:40:20.051Z,5.80
2023-02-17T06:42:46.672Z,6.53
2023-02-17T06:45:13.353Z,6.68
2023-02-17T06:47:39.995Z,7.25
2023-02-17T06:50:07.756Z,6.63
2023-02-17T06:52:34.805Z,6.35
2023-02-17T06:55:01.390Z,6.47
2023-02-17T06:57:28.164Z,6.10
2023-02-17T06:59:54.819Z,5.35
2023-02-17T07:02:21.519Z,5.32
2023-02-17T07:04:48.244Z,5.47
2023-02-17T07:07:15.164Z,6.10
2023-02-17T07:09:41.722Z,5.45
2023-02-17T07:12:08.431Z,5.35
2023-02-17T07:14:35.582Z,5.15
2023-02-17T07:17:02.560Z,5.28
2023-02-17T07:19:29.331Z,4.72
2023-02-17T07:21:55.885Z,5.30
2023-02-17T07:24:22.500Z,4.95
2023-02-17T07:26:49.086Z,5.35
2023-02-17T07:29:15.678Z,5.38
2023-02-17T07:31:42.314Z,5.78
2023-02-17T07:34:09.267Z,6.78
2023-02-17T07:36:35.904Z,6.90
2023-02-17T07:39:03.354Z,6.82
2023-02-17T07:41:30.804Z,7.32
2023-02-17T07:43:57.721Z,6.40
2023-02-17T07:46:24.610Z,6.90
2023-02-17T07:48:51.375Z,6.55
2023-02-17T07:51:21.226Z,6.13
2023-02-17T07:53:48.743Z,7.45
2023-02-17T07:56:19.219Z,7.38
2023-02-17T07:58:46.194Z,7.40
2023-02-17T08:01:23.665Z,7.57
2023-02-17T08:03:51.084Z,7.75
2023-02-17T08:06:23.365Z,7.20
2023-02-17T08:09:09.173Z,6.88
2023-02-17T08:11:54.376Z,6.90
2023-02-17T08:14:22.483Z,6.35
2023-02-17T08:16:49.186Z,6.47
2023-02-17T08:19:15.905Z,5.97
2023-02-17T08:21:43.545Z,6.80
2023-02-17T08:24:10.329Z,5.75
2023-02-17T08:26:37.145Z,5.95
2023-02-17T08:29:05.275Z,6.32
2023-02-17T08:31:34.540Z,7.30
2023-02-17T08:34:02.874Z,6.22
2023-02-17T08:36:29.748Z,7.20
2023-02-17T08:38:57.012Z,6.20
2023-02-17T08:41:31.998Z,6.45
2023-02-17T08:44:00.286Z,6.07
2023-02-17T08:46:27.989Z,6.05
2023-02-17T08:48:54.723Z,6.00
2023-02-17T08:51:23.945Z,6.10
2023-02-17T08:53:52.061Z,5.80
2023-02-17T08:56:18.659Z,5.75
2023-02-17T08:58:45.286Z,5.60
2023-02-17T09:01:12.368Z,6.10
2023-02-17T09:03:40.187Z,6.20
2023-02-17T09:06:07.914Z,5.05
2023-02-17T09:08:34.832Z,5.10
2023-02-17T09:11:01.533Z,5.00
2023-02-17T09:13:28.222Z,4.30
2023-02-17T09:15:54.853Z,4.28
2023-02-17T09:18:22.390Z,4.25
2023-02-17T09:20:49.873Z,4.57
2023-02-17T09:23:16.977Z,4.10
2023-02-17T09:25:43.586Z,3.75
2023-02-17T09:28:10.476Z,3.92
2023-02-17T09:30:37.216Z,3.78
2023-02-17T09:33:05.419Z,4.05
2023-02-17T09:35:33.084Z,4.05
2023-02-17T09:38:01.311Z,3.65
2023-02-17T09:40:47.452Z,2.95
2023-02-17T09:43:17.173Z,3.30
2023-02-17T09:45:53.320Z,3.08
2023-02-17T09:48:22.244Z,2.85
2023-02-17T09:51:15.014Z,3.13
2023-02-17T09:53:49.588Z,3.05
2023-02-17T09:56:23.126Z,2.85
2023-02-17T09:58:53.790Z,2.85
2023-02-17T10:01:23.977Z,3.10
2023-02-17T10:03:56.434Z,3.25
2023-02-17T10:06:44.988Z,2.90
2023-02-17T10:09:14.555Z,3.33
2023-02-17T10:11:43.254Z,3.20
2023-02-17T10:14:17.715Z,3.33
2023-02-17T10:16:49.400Z,2.90
2023-02-17T10:19:30.147Z,2.80
2023-02-17T10:22:14.979Z,2.95
2023-02-17T10:24:41.566Z,2.80
2023-02-17T10:27:15.552Z,2.97
2023-02-17T10:30:10.021Z,3.17
2023-02-17T10:33:01.971Z,3.08
2023-02-17T10:35:34.512Z,3.00
2023-02-17T10:38:18.357Z,2.85
2023-02-17T10:40:47.516Z,2.92
2023-02-17T10:43:15.629Z,3.17
2023-02-17T10:45:45.112Z,2.90
2023-02-17T10:48:19.112Z,3.10
2023-02-17T10:50:46.395Z,3.13
2023-02-17T10:53:15.249Z,3.08
2023-02-17T10:55:50.755Z,3.22
2023-02-17T10:58:24.389Z,2.67
2023-02-17T11:00:54.909Z,3.00
2023-02-17T11:03:24.145Z,2.83
2023-02-17T11:05:59.148Z,2.97
2023-02-17T11:08:33.007Z,3.10
2023-02-17T11:11:06.300Z,3.05
2023-02-17T11:13:37.289Z,3.20
2023-02-17T11:16:05.891Z,3.10
2023-02-17T11:18:35.643Z,3.13
2023-02-17T11:21:06.112Z,3.22
2023-02-17T11:23:33.022Z,3.83
2023-02-17T11:26:09.872Z,2.85
2023-02-17T11:28:36.766Z,3.30
2023-02-17T11:31:05.018Z,3.20
2023-02-17T11:33:35.139Z,3.15
2023-02-17T11:36:02.284Z,2.92
2023-02-17T11:38:39.368Z,2.70
2023-02-17T11:41:07.732Z,2.85
2023-02-17T11:43:35.706Z,2.90
2023-02-17T11:46:15.467Z,2.80
2023-02-17T11:48:59.666Z,2.90
2023-02-17T11:51:52.292Z,3.10
2023-02-17T11:54:35.090Z,2.75
2023-02-17T11:57:17.024Z,2.90
2023-02-17T12:02:24.712Z,2.88
2023-02-17T12:05:17.466Z,2.75
2023-02-17T12:08:04.737Z,2.78
2023-02-17T12:11:08.775Z,2.63
2023-02-17T12:13:53.675Z,2.67
2023-02-17T12:16:23.592Z,2.70
2023-02-17T12:19:01.851Z,3.03
2023-02-17T12:21:53.906Z,2.85
2023-02-17T12:27:13.882Z,2.60
2023-02-17T12:29:54.916Z,2.45
2023-02-17T12:32:48.969Z,2.78
2023-02-17T12:35:20.206Z,2.95
2023-02-17T12:38:14.617Z,3.00
2023-02-17T12:40:45.567Z,2.90
2023-02-17T12:43:43.688Z,2.67
2023-02-17T12:46:17.821Z,2.78
2023-02-17T12:48:44.394Z,2.88
2023-02-17T12:51:30.380Z,3.00
2023-02-17T12:54:07.409Z,2.65
2023-02-17T12:56:43.656Z,2.63
2023-02-17T12:59:15.228Z,3.13
2023-02-17T13:01:49.823Z,2.80
2023-02-17T13:04:18.687Z,3.00
2023-02-17T13:06:52.775Z,2.60
2023-02-17T13:09:32.289Z,2.85
2023-02-17T13:12:17.978Z,2.70
2023-02-17T13:14:57.297Z,2.92
2023-02-17T13:17:33.224Z,2.70
2023-02-17T13:20:12.101Z,2.80
2023-02-17T13:22:40.397Z,2.40
2023-02-17T13:25:07.712Z,2.63
2023-02-17T13:27:36.141Z,2.55
2023-02-17T13:30:10.208Z,2.45
2023-02-17T13:32:38.879Z,2.60
2023-02-17T13:35:11.648Z,2.60
2023-02-17T13:37:42.140Z,2.50
2023-02-17T13:40:20.746Z,2.60
2023-02-17T13:42:54.027Z,2.42
2023-02-17T13:45:41.963Z,2.65
2023-02-17T13:48:29.041Z,2.67
2023-02-17T13:50:58.125Z,2.50
2023-02-17T13:53:32.135Z,2.50
2023-02-17T13:56:05.102Z,2.35
2023-02-17T13:58:38.025Z,2.50
2023-02-17T14:01:06.971Z,2.28
2023-02-17T14:03:39.369Z,2.45
2023-02-17T14:06:07.386Z,2.42
2023-02-17T14:08:37.116Z,2.60
2023-02-17T14:11:12.992Z,2.22
2023-02-17T14:13:45.701Z,2.50
2023-02-17T14:16:43.459Z,2.30
2023-02-17T14:19:15.260Z,2.20
2023-02-17T14:24:24.588Z,2.47
2023-02-17T14:26:53.998Z,2.17
2023-02-17T14:29:20.515Z,2.20
2023-02-17T14:31:51.924Z,2.17
2023-02-17T14:34:31.205Z,2.22
2023-02-17T14:37:32.039Z,2.40
2023-02-17T14:39:58.542Z,1.95
2023-02-17T14:42:25.078Z,2.25
2023-02-17T14:44:51.636Z,2.40
2023-02-17T14:47:18.186Z,2.13
2023-02-17T14:49:45.305Z,2.05
2023-02-17T14:52:18.972Z,2.17
2023-02-17T14:54:45.611Z,1.90
2023-02-17T14:57:13.960Z,1.92
2023-02-17T14:59:41.109Z,2.10
2023-02-17T15:02:20.007Z,1.70
2023-02-17T15:04:47.199Z,1.80
2023-02-17T15:07:17.876Z,1.80
2023-02-17T15:09:45.434Z,1.80
2023-02-17T15:12:15.157Z,1.90
2023-02-17T15:14:42.116Z,1.63
2023-02-17T15:17:08.699Z,1.75
2023-02-17T15:19:35.754Z,1.58
2023-02-17T15:22:03.606Z,1.83
2023-02-17T15:41:48.273Z,1.98
2023-02-17T15:44:23.622Z,1.50
2023-02-17T15:46:51.772Z,1.85
2023-02-17T15:49:18.538Z,1.60
2023-02-17T15:51:45.175Z,1.60
2023-02-17T15:54:11.744Z,1.63
2023-02-17T15:56:43.291Z,1.50
2023-02-17T15:59:15.526Z,1.75
2023-02-17T16:01:42.666Z,1.60
2023-02-17T16:04:13.373Z,1.70
2023-02-17T16:06:40.320Z,1.80
2023-02-17T16:09:07.680Z,1.70
2023-02-17T16:11:35.205Z,1.70
2023-02-17T16:14:02.034Z,1.60
2023-02-17T16:16:34.834Z,1.70
2023-02-17T16:19:02.723Z,1.80
2023-02-17T16:21:29.332Z,1.75
2023-02-17T16:23:59.778Z,1.88
2023-02-17T16:26:34.160Z,1.70
2023-02-17T16:29:13.840Z,2.08
2023-02-17T16:31:40.559Z,1.60
2023-02-17T16:34:07.267Z,1.98
2023-02-17T16:36:35.169Z,2.20
2023-02-17T16:39:04.251Z,2.13
2023-02-17T16:41:30.831Z,2.05
2023-02-17T16:43:57.382Z,1.88
2023-02-17T16:46:30.336Z,1.70
2023-02-17T16:49:01.431Z,2.03
2023-02-17T16:51:28.342Z,1.70
2023-02-17T16:53:54.865Z,1.95
2023-02-17T16:56:27.448Z,1.90
2023-02-17T16:58:54.058Z,1.90
2023-02-17T17:01:20.606Z,1.95
2023-02-17T17:03:47.262Z,2.10
2023-02-17T17:06:18.768Z,2.28
2023-02-17T17:08:45.810Z,1.80
2023-02-17T17:11:17.316Z,2.08
2023-02-17T17:13:44.539Z,1.95
2023-02-17T17:16:35.414Z,1.80
2023-02-17T17:19:02.685Z,2.10
2023-02-17T17:21:30.336Z,1.80
2023-02-17T17:23:56.996Z,2.20
2023-02-17T17:26:35.722Z,2.30
2023-02-17T17:29:03.482Z,2.03
2023-02-17T17:31:30.200Z,1.90
2023-02-17T17:33:57.054Z,2.20
2023-02-17T17:36:42.130Z,2.08
2023-02-17T17:39:14.938Z,2.20
2023-02-17T17:41:41.572Z,2.25
2023-02-17T17:44:10.379Z,2.00
2023-02-17T17:46:38.239Z,2.20
2023-02-17T17:49:06.193Z,2.05
2023-02-17T17:51:33.987Z,2.13
2023-02-17T17:54:00.847Z,1.92
2023-02-17T17:56:30.623Z,2.17
2023-02-17T17:58:59.564Z,2.28
2023-02-17T18:01:26.486Z,2.45
2023-02-17T18:03:53.394Z,2.10
2023-02-17T18:06:30.476Z,2.10
2023-02-17T18:09:02.050Z,2.30
2023-02-17T18:11:28.863Z,2.20
2023-02-17T18:13:58.561Z,2.00
2023-02-17T18:16:26.220Z,2.38
2023-02-17T18:18:52.964Z,2.30
2023-02-17T18:21:20.935Z,2.67
2023-02-17T18:23:48.573Z,2.60
2023-02-17T18:26:15.546Z,2.42
2023-02-17T18:28:42.392Z,2.55
2023-02-17T18:31:14.322Z,2.80
2023-02-17T18:33:41.275Z,2.50
2023-02-17T18:36:10.827Z,2.88
2023-02-17T18:38:37.428Z,2.38
2023-02-17T18:41:04.565Z,2.70
2023-02-17T18:43:31.481Z,2.50
2023-02-17T18:45:58.505Z,2.40
2023-02-17T18:48:26.387Z,2.35
2023-02-17T18:50:53.233Z,2.33
2023-02-17T18:53:19.810Z,2.50
2023-02-17T18:55:46.418Z,2.95
2023-02-17T18:58:12.984Z,2.10
2023-02-17T19:00:39.586Z,2.53
2023-02-17T19:03:07.598Z,2.40
2023-02-17T19:05:34.190Z,2.50
2023-02-17T19:08:00.799Z,2.55
2023-02-17T19:10:27.461Z,2.35
2023-02-17T19:12:54.104Z,2.47
2023-02-17T19:15:23.149Z,2.35
2023-02-17T19:17:51.558Z,2.10
2023-02-17T19:20:18.608Z,2.30
2023-02-17T19:22:45.152Z,2.40
2023-02-17T19:25:11.808Z,2.60
2023-02-17T19:27:41.785Z,2.28
2023-02-17T19:30:10.211Z,2.80
2023-02-17T19:32:36.838Z,2.60
2023-02-17T19:35:04.425Z,2.20
2023-02-17T19:37:31.350Z,2.50
2023-02-17T19:40:00.177Z,2.42
2023-02-17T19:42:26.871Z,2.70
2023-02-17T19:44:54.610Z,2.40
2023-02-17T19:47:21.229Z,2.53
2023-02-17T19:49:47.762Z,2.42
2023-02-17T19:52:14.363Z,2.55
2023-02-17T19:54:40.954Z,2.42
2023-02-17T19:57:07.465Z,2.72
2023-02-17T19:59:35.354Z,2.45
2023-02-17T20:02:01.954Z,2.60
2023-02-17T20:04:28.526Z,2.50
2023-02-17T20:06:55.251Z,2.50
2023-02-17T20:09:22.985Z,2.60
2023-02-17T20:11:53.117Z,2.83
2023-02-17T20:14:20.842Z,2.70
2023-02-17T20:16:48.637Z,2.63
2023-02-17T20:19:15.514Z,2.50
2023-02-17T20:21:44.948Z,2.30
2023-02-17T20:24:14.137Z,2.60
2023-02-17T20:26:43.605Z,2.45
2023-02-17T20:29:10.696Z,2.47
2023-02-17T20:31:38.546Z,2.55
2023-02-17T20:34:06.904Z,2.65
2023-02-17T20:36:33.850Z,2.72
2023-02-17T20:39:00.561Z,3.10
2023-02-17T20:41:27.211Z,3.20
2023-02-17T20:43:53.924Z,3.20
2023-02-17T20:46:25.644Z,3.00
2023-02-17T20:48:53.069Z,3.67
2023-02-17T20:51:20.617Z,3.30
2023-02-17T20:53:47.220Z,3.78
2023-02-17T20:56:16.428Z,3.85
2023-02-17T20:58:43.058Z,4.38
2023-02-17T21:01:10.194Z,4.03
2023-02-17T21:03:37.193Z,3.95
2023-02-17T21:06:05.566Z,4.28
2023-02-17T21:08:32.855Z,4.80
2023-02-17T21:10:59.463Z,6.45
2023-02-17T21:13:26.008Z,7.35
2023-02-17T21:15:52.712Z,6.72
2023-02-17T21:18:19.330Z,7.13
2023-02-17T21:20:46.026Z,7.20
2023-02-17T21:23:12.633Z,6.65
2023-02-17T21:25:39.268Z,6.70
2023-02-17T21:28:05.834Z,6.05
2023-02-17T21:30:32.543Z,6.10
2023-02-17T21:32:59.156Z,5.50
2023-02-17T21:35:25.700Z,6.05
2023-02-17T21:37:52.344Z,5.55
2023-02-17T21:40:19.095Z,5.70
2023-02-17T21:43:04.084Z,5.70
2023-02-17T21:45:30.856Z,5.15
2023-02-17T21:47:57.470Z,5.47
2023-02-17T21:50:24.009Z,5.03
2023-02-17T21:52:50.623Z,5.03
2023-02-17T21:55:17.866Z,6.53
2023-02-17T21:57:44.467Z,6.20
2023-02-17T22:00:11.944Z,7.60
2023-02-17T22:02:39.118Z,7.28
2023-02-17T22:05:06.754Z,7.00
2023-02-17T22:07:33.426Z,6.55
2023-02-17T22:10:00.141Z,6.60
2023-02-17T22:12:27.116Z,6.20
2023-02-17T22:14:53.641Z,5.70
2023-02-17T22:17:20.176Z,6.05
2023-02-17T22:19:46.777Z,5.78
2023-02-17T22:22:13.319Z,5.72
2023-02-17T22:24:39.834Z,5.25
2023-02-17T22:27:06.413Z,5.10
2023-02-17T22:29:32.935Z,5.03
2023-02-17T22:31:59.579Z,4.75
2023-02-17T22:34:27.695Z,4.90
2023-02-17T22:36:54.659Z,5.18
2023-02-17T22:39:21.200Z,4.15
2023-02-17T22:41:48.241Z,4.80
2023-02-17T22:44:14.831Z,4.43
2023-02-17T22:46:41.405Z,4.88
2023-02-17T22:49:08.022Z,4.22
2023-02-17T22:51:36.583Z,4.63
2023-02-17T22:54:03.967Z,5.05
2023-02-17T22:56:30.951Z,4.78
2023-02-17T22:59:00.879Z,4.95
2023-02-17T23:01:29.213Z,4.65
2023-02-17T23:03:55.844Z,5.20
2023-02-17T23:06:33.071Z,5.80
2023-02-17T23:09:00.557Z,5.40
2023-02-17T23:11:54.127Z,5.43
2023-02-17T23:14:28.524Z,5.32
2023-02-17T23:16:59.002Z,5.93
2023-02-17T23:19:25.668Z,5.57
2023-02-17T23:21:54.882Z,5.07
2023-02-17T23:24:22.090Z,5.55
2023-02-17T23:26:49.439Z,5.03
2023-02-17T23:29:16.563Z,5.00
2023-02-17T23:31:43.218Z,5.18
2023-02-17T23:34:12.324Z,5.10
2023-02-17T23:36:40.106Z,5.18
2023-02-17T23:39:06.904Z,5.07
2023-02-17T23:41:33.459Z,4.72
2023-02-17T23:44:00.042Z,4.97
2023-02-17T23:46:28.145Z,5.60
2023-02-17T23:48:54.801Z,5.07
2023-02-17T23:51:21.385Z,4.53
2023-02-17T23:53:48.098Z,4.70
2023-02-17T23:56:18.777Z,5.45
2023-02-17T23:58:45.456Z,4.75
